Airfield :
LOGIN :

Register | Disclaimer

   EN    FR    IT 

 










Legend :    VFR   Marginal VFR   IFR   Intensive IFR   Very Intensive IFR
Visi :
Ceiling :
>= 8 km
>= 3000ft
5 to 8 km
1000 to 3000 ft
1500m to 5 km
500 to 1000 ft
800 to 1500m
200 to 500 ft
< 800m
< 200 ft
Symbols :   Thunderstorms  Fog  Heavy snow  Heavy precipitations  Wind > 20 kt
SIGMETs :     Misc.  Thunderstorms  Icing  Turbulence  Mountain Waves  Volcanic Ashes






- Airport Elevation : 602 ft
- IATA code : NVS


LFQG - Nevers

CURRENT METAR :
  • 261030Z AUTO 03003KT 360V070 4700 BR OVC003 M02/M03 Q1035

EXPIRED METARs :
  • 261000Z AUTO VRB02KT 5000 BR OVC003 M02/M03 Q1035
  • 260930Z AUTO 04003KT 020V080 4500 BR OVC003 M03/M03 Q1035
  • 260900Z AUTO 08004KT 4600 BR OVC003 M03/M03 Q1035
  • 260830Z AUTO VRB02KT 5000 BR OVC003 M03/M03 Q1035
  • 260800Z AUTO 07004KT 020V110 4900 BR OVC003 M03/M03 Q1034

TAF N/A



MET'MAP, your aeronautical weather chart ! - Copyright ORBIFLY December 2007 - Disclaimer

ORBIFLY MET'MAP TEAM :

Programming & Development : Alexandra Zaïnal
Original concept : Baudouin d'Aumeries
Technical & hardware support : Manuel Goepfert
Assistance : Marc-Olivier Méhu

Contact : metmap@orbifly.com




SOURCES & CREDITS :

   NOAA